Time;durP1;ratioP1;P1;durP2;ratioP2;P2;SDS_P1;SDS_P2;PMS_P1;PMS_P2;Temp;Humidity;BMP_temperature;BMP_pressure;BME280_temperature;BME280_humidity;BME280_pressure;Samples;Min_cycle;Max_cycle;Signal;HPM_P1;HPM_P2
2022/12/06 00:01:16;;;;;;;12.07;4.45;;;5.60;99.90;;;;;;5017817;28;20037;-88
2022/12/06 00:03:46;;;;;;;9.55;4.43;;;5.60;99.90;;;;;;5019138;28;20053;-88
2022/12/06 00:06:17;;;;;;;7.10;3.85;;;5.60;99.90;;;;;;5049539;28;20044;-87
2022/12/06 00:08:44;;;;;;;12.93;4.53;;;5.60;99.90;;;;;;5019367;28;20051;-87
2022/12/06 00:11:19;;;;;;;10.25;4.20;;;5.50;99.90;;;;;;5017199;28;20036;-88
2022/12/06 00:13:45;;;;;;;;;;;5.40;99.90;;;;;;5015075;28;20048;-87
2022/12/06 00:16:14;;;;;;;9.52;3.63;;;5.40;99.90;;;;;;5022958;28;19956;-88
2022/12/06 00:18:41;;;;;;;8.75;3.38;;;5.40;99.90;;;;;;5017714;28;20048;-88
2022/12/06 00:21:20;;;;;;;7.00;3.42;;;5.40;99.90;;;;;;5031465;28;20052;-88
2022/12/06 00:23:50;;;;;;;7.95;3.35;;;5.30;99.90;;;;;;5016668;28;20053;-87
2022/12/06 00:26:16;;;;;;;8.80;3.30;;;5.30;99.90;;;;;;5031197;28;20037;-88
2022/12/06 00:28:42;;;;;;;7.05;3.15;;;5.30;99.90;;;;;;5015168;28;20103;-88
2022/12/06 00:31:13;;;;;;;8.45;3.63;;;5.40;99.90;;;;;;5023128;28;20340;-88
2022/12/06 00:33:39;;;;;;;10.40;4.03;;;5.40;99.90;;;;;;5034776;28;20070;-88
2022/12/06 00:36:17;;;;;;;9.32;3.50;;;5.40;99.90;;;;;;5033534;28;20461;-87
2022/12/06 00:38:43;;;;;;;7.43;3.40;;;5.40;99.90;;;;;;5033312;28;20167;-87
2022/12/06 00:41:12;;;;;;;15.05;4.32;;;5.40;99.90;;;;;;5030754;28;20044;-88
2022/12/06 00:43:38;;;;;;;10.10;3.67;;;5.50;99.90;;;;;;5050391;28;20044;-87
2022/12/06 00:46:06;;;;;;;10.60;3.90;;;5.50;99.90;;;;;;5021061;28;20510;-88
2022/12/06 00:48:33;;;;;;;11.65;3.85;;;5.50;99.90;;;;;;5014681;28;20033;-87
2022/12/06 00:50:59;;;;;;;11.90;4.13;;;5.50;99.90;;;;;;5016314;28;20037;-88
2022/12/06 00:53:25;;;;;;;9.63;4.45;;;5.50;99.90;;;;;;5032476;28;20099;-88
2022/12/06 00:55:54;;;;;;;8.10;3.60;;;5.50;99.90;;;;;;5032251;28;20096;-87
2022/12/06 00:58:21;;;;;;;10.40;3.92;;;5.50;99.90;;;;;;5033298;28;20051;-89
2022/12/06 01:00:47;;;;;;;6.07;2.90;;;5.40;99.90;;;;;;5019800;28;20045;-88
2022/12/06 01:03:13;;;;;;;8.30;3.20;;;5.40;99.90;;;;;;5031563;28;20139;-88
2022/12/06 01:05:52;;;;;;;5.05;2.90;;;5.40;99.90;;;;;;5031003;28;20065;-89
2022/12/06 01:08:18;;;;;;;4.20;2.65;;;5.40;99.90;;;;;;5033510;28;20515;-88
2022/12/06 01:10:54;;;;;;;7.53;2.67;;;5.40;99.90;;;;;;5017423;28;20045;-88
2022/12/06 01:13:20;;;;;;;5.72;2.40;;;5.40;99.90;;;;;;5016583;28;20032;-88
2022/12/06 01:15:46;;;;;;;8.02;2.65;;;5.40;99.90;;;;;;5034711;28;20559;-89
2022/12/06 01:18:12;;;;;;;5.97;2.42;;;5.40;99.90;;;;;;5033363;28;20045;-88
2022/12/06 01:20:37;;;;;;;4.45;2.40;;;5.40;99.90;;;;;;5033524;28;20348;-88
2022/12/06 01:23:03;;;;;;;10.48;2.50;;;5.30;99.90;;;;;;5015831;28;20135;-88
2022/12/06 01:25:29;;;;;;;4.78;2.30;;;5.40;99.90;;;;;;5015536;28;20513;-87
2022/12/06 01:27:55;;;;;;;6.65;2.38;;;5.40;99.90;;;;;;5031717;28;20265;-88
2022/12/06 01:30:25;;;;;;;6.28;2.65;;;5.30;99.90;;;;;;5018405;28;20080;-88
2022/12/06 01:32:50;;;;;;;6.43;2.38;;;5.30;99.90;;;;;;5031731;28;20075;-88
2022/12/06 01:35:16;;;;;;;5.78;2.40;;;5.30;99.90;;;;;;5018960;28;20041;-88
2022/12/06 01:37:42;;;;;;;4.93;2.38;;;5.30;99.90;;;;;;5014387;28;20440;-88
2022/12/06 01:40:08;;;;;;;8.52;2.30;;;5.30;99.90;;;;;;5033419;28;20046;-88
2022/12/06 01:42:34;;;;;;;4.18;2.28;;;5.30;99.90;;;;;;5031599;28;20155;-89
2022/12/06 01:45:00;;;;;;;5.28;2.45;;;5.30;99.90;;;;;;5017274;28;20366;-88
2022/12/06 01:47:33;;;;;;;3.75;2.05;;;5.30;99.90;;;;;;5015338;28;20124;-88
2022/12/06 01:50:13;;;;;;;5.35;1.67;;;5.30;99.90;;;;;;5018206;28;20489;-89
2022/12/06 01:52:59;;;;;;;5.75;1.80;;;5.30;99.90;;;;;;5029509;28;20432;-88
2022/12/06 01:55:35;;;;;;;4.28;2.08;;;5.30;99.90;;;;;;5020408;28;20056;-88
2022/12/06 01:58:10;;;;;;;3.95;1.63;;;5.30;99.90;;;;;;5016081;28;20045;-89
2022/12/06 02:00:36;;;;;;;4.25;1.70;;;5.20;99.90;;;;;;5019835;28;20033;-88
2022/12/06 02:03:07;;;;;;;3.92;1.40;;;5.30;99.90;;;;;;5020841;28;20044;-88
2022/12/06 02:05:35;;;;;;;2.08;1.23;;;5.20;99.90;;;;;;5018628;28;20033;-88
2022/12/06 02:08:02;;;;;;;3.75;1.52;;;5.20;99.90;;;;;;5021125;28;20068;-89
2022/12/06 02:10:28;;;;;;;2.55;1.45;;;5.20;99.90;;;;;;5034739;28;20037;-88
2022/12/06 02:12:57;;;;;;;2.60;1.30;;;5.20;99.90;;;;;;5020736;28;20452;-88
2022/12/06 02:15:39;;;;;;;3.78;1.58;;;5.20;99.90;;;;;;5032175;28;20063;-87
2022/12/06 02:18:13;;;;;;;3.75;1.50;;;5.20;99.90;;;;;;5034107;28;20033;-88
2022/12/06 02:20:59;;;;;;;4.78;1.40;;;5.20;99.90;;;;;;5051518;28;20132;-89
2022/12/06 02:23:51;;;;;;;3.53;1.50;;;5.20;99.90;;;;;;5019936;28;20183;-88
2022/12/06 02:26:38;;;;;;;4.25;1.35;;;5.20;99.90;;;;;;5033748;28;20049;-88
2022/12/06 02:29:28;;;;;;;3.05;1.48;;;5.10;99.90;;;;;;5034412;28;20056;-88
2022/12/06 02:32:01;;;;;;;2.28;1.23;;;5.10;99.90;;;;;;5019268;28;20043;-88
2022/12/06 02:34:42;;;;;;;4.57;1.50;;;5.10;99.90;;;;;;5019669;28;20715;-88
2022/12/06 02:37:27;;;;;;;2.63;1.20;;;5.10;99.90;;;;;;5035131;28;20399;-88
2022/12/06 02:40:07;;;;;;;4.68;1.48;;;5.10;99.90;;;;;;5019320;28;20049;-89
2022/12/06 02:42:35;;;;;;;3.90;1.85;;;5.10;99.90;;;;;;5017912;28;20186;-87
2022/12/06 02:45:07;;;;;;;4.35;1.48;;;5.10;99.90;;;;;;5039106;28;20036;-88
2022/12/06 02:47:36;;;;;;;3.50;1.45;;;5.10;99.90;;;;;;5033418;28;20043;-88
2022/12/06 02:50:10;;;;;;;6.05;1.88;;;5.00;99.90;;;;;;5035945;28;20076;-87
2022/12/06 02:52:40;;;;;;;4.35;1.70;;;5.00;99.90;;;;;;5016124;28;20051;-88
2022/12/06 02:55:10;;;;;;;5.97;1.33;;;4.90;99.90;;;;;;5020180;28;20040;-88
2022/12/06 02:57:48;;;;;;;4.43;1.50;;;4.90;99.90;;;;;;5018534;28;20380;-88
2022/12/06 03:00:39;;;;;;;4.13;1.30;;;4.90;99.90;;;;;;5023524;28;20453;-88
2022/12/06 03:03:22;;;;;;;3.90;1.70;;;4.90;99.90;;;;;;5017701;28;20041;-87
2022/12/06 03:06:00;;;;;;;5.30;1.60;;;4.80;99.90;;;;;;5020945;28;20056;-87
2022/12/06 03:08:43;;;;;;;4.90;1.60;;;4.80;99.90;;;;;;5020195;28;20059;-88
2022/12/06 03:11:10;;;;;;;2.88;1.55;;;4.90;99.90;;;;;;5034458;28;20484;-88
2022/12/06 03:13:58;;;;;;;3.40;1.42;;;4.90;99.90;;;;;;5016693;28;20751;-88
2022/12/06 03:16:32;;;;;;;2.70;1.60;;;4.90;99.90;;;;;;5033594;28;20036;-88
2022/12/06 03:19:05;;;;;;;5.55;1.70;;;4.90;99.90;;;;;;5033621;28;20059;-88
2022/12/06 03:21:44;;;;;;;3.08;1.50;;;4.90;99.90;;;;;;5033191;28;20041;-87
2022/12/06 03:24:14;;;;;;;6.70;1.90;;;4.80;99.90;;;;;;5019297;28;20056;-87
2022/12/06 03:26:42;;;;;;;4.75;1.75;;;4.80;99.90;;;;;;5018012;28;20083;-88
2022/12/06 03:29:09;;;;;;;5.35;1.73;;;4.80;99.90;;;;;;5018224;28;20042;-87
2022/12/06 03:31:37;;;;;;;5.25;2.05;;;4.80;99.90;;;;;;5020708;28;20074;-87
2022/12/06 03:34:10;;;;;;;3.22;2.05;;;4.80;99.90;;;;;;5018396;28;20548;-88
2022/12/06 03:36:37;;;;;;;3.50;1.75;;;4.80;99.90;;;;;;5034175;28;20072;-88
2022/12/06 03:39:07;;;;;;;6.38;2.30;;;4.80;99.90;;;;;;5030527;28;20072;-88
2022/12/06 03:41:45;;;;;;;7.45;2.40;;;4.70;99.90;;;;;;5033263;28;20483;-87
2022/12/06 03:44:10;;;;;;;3.67;2.00;;;4.70;99.90;;;;;;5032266;28;20758;-88
2022/12/06 03:46:47;;;;;;;4.55;2.10;;;4.80;99.90;;;;;;5035316;28;20129;-88
2022/12/06 03:49:27;;;;;;;4.90;2.13;;;4.70;99.90;;;;;;5021937;28;20281;-88
2022/12/06 03:51:53;;;;;;;5.43;2.03;;;4.80;99.90;;;;;;5036012;28;20080;-87
2022/12/06 03:54:19;;;;;;;4.88;1.88;;;4.70;99.90;;;;;;5026710;28;20150;-87
2022/12/06 03:56:44;;;;;;;7.05;2.10;;;4.70;99.90;;;;;;5014816;28;20081;-87
2022/12/06 03:59:13;;;;;;;5.70;2.05;;;4.70;99.90;;;;;;5014848;28;20044;-87
2022/12/06 04:01:39;;;;;;;4.63;2.60;;;4.60;99.90;;;;;;5034478;28;20048;-88
2022/12/06 04:04:05;;;;;;;8.27;2.53;;;4.60;99.90;;;;;;5030566;28;20037;-88
2022/12/06 04:06:30;;;;;;;7.35;2.38;;;4.50;99.90;;;;;;5030547;28;20399;-88
2022/12/06 04:11:44;;;;;;;4.35;2.20;;;4.50;99.90;;;;;;5047889;28;20196;-88
2022/12/06 04:14:10;;;;;;;5.70;2.20;;;4.60;99.90;;;;;;5032122;28;20396;-87
2022/12/06 04:19:22;;;;;;;6.97;2.20;;;4.50;99.90;;;;;;5033469;28;20052;-89
2022/12/06 04:24:32;;;;;;;6.13;2.30;;;4.50;99.90;;;;;;5034355;28;20072;-87
2022/12/06 04:28:40;;;;;;;6.38;2.08;;;4.50;99.90;;;;;;5017226;28;20047;-88
2022/12/06 04:40:46;;;;;;;4.85;2.28;;;4.40;99.90;;;;;;5031957;28;20049;-87
2022/12/06 04:45:56;;;;;;;5.78;1.90;;;4.40;99.90;;;;;;5036097;28;20071;-87
2022/12/06 04:48:21;;;;;;;4.57;2.25;;;4.40;99.90;;;;;;5015127;28;20037;-87
2022/12/06 04:50:50;;;;;;;5.75;2.10;;;4.30;99.90;;;;;;5016342;28;20079;-87
2022/12/06 04:53:16;;;;;;;4.90;2.28;;;4.40;99.90;;;;;;5017286;28;20195;-88
2022/12/06 04:55:46;;;;;;;6.47;2.17;;;4.30;99.90;;;;;;5034353;28;20131;-88
2022/12/06 04:58:12;;;;;;;4.93;2.10;;;4.30;99.90;;;;;;5032401;28;20193;-88
2022/12/06 05:00:42;;;;;;;4.45;2.20;;;4.10;99.90;;;;;;5032133;28;20476;-88
2022/12/06 05:03:10;;;;;;;5.63;2.25;;;4.10;99.90;;;;;;5013477;28;20107;-87
2022/12/06 05:05:36;;;;;;;4.63;2.10;;;4.00;99.90;;;;;;5028736;28;20613;-87
2022/12/06 05:08:01;;;;;;;6.63;2.30;;;4.00;99.90;;;;;;5031581;28;20037;-87
2022/12/06 05:10:27;;;;;;;6.57;2.35;;;4.00;99.90;;;;;;5014363;28;20479;-88
2022/12/06 05:12:53;;;;;;;7.70;2.03;;;4.00;99.90;;;;;;5017367;28;20174;-88
2022/12/06 05:15:18;;;;;;;5.65;2.00;;;3.90;99.90;;;;;;5035659;28;20051;-87
2022/12/06 05:17:44;;;;;;;3.17;2.28;;;4.00;99.90;;;;;;5017267;28;20055;-87
2022/12/06 05:20:16;;;;;;;4.50;2.00;;;3.90;99.90;;;;;;5014524;28;20088;-88
2022/12/06 05:22:41;;;;;;;3.80;2.10;;;3.80;99.90;;;;;;5015280;28;20296;-87
2022/12/06 05:25:08;;;;;;;6.88;1.90;;;3.80;99.90;;;;;;5015253;28;20209;-88
2022/12/06 05:27:33;;;;;;;5.38;2.35;;;3.80;99.90;;;;;;5032466;28;20029;-87
2022/12/06 05:29:59;;;;;;;4.40;2.42;;;3.70;99.90;;;;;;5021205;28;20033;-87
2022/12/06 05:32:25;;;;;;;4.68;2.33;;;3.70;99.90;;;;;;5022990;28;20041;-88
2022/12/06 05:34:50;;;;;;;4.97;2.10;;;3.80;99.90;;;;;;5019311;28;20095;-87
2022/12/06 05:37:16;;;;;;;6.50;2.47;;;3.70;99.90;;;;;;5020162;28;20044;-87
2022/12/06 05:39:44;;;;;;;6.93;2.58;;;3.70;99.90;;;;;;5036383;28;20045;-88
2022/12/06 05:42:10;;;;;;;6.10;2.50;;;3.70;99.90;;;;;;5033899;28;20040;-88
2022/12/06 05:44:36;;;;;;;8.70;2.50;;;3.80;99.90;;;;;;5019151;28;20106;-88
2022/12/06 05:47:01;;;;;;;7.03;2.53;;;3.70;99.90;;;;;;5028314;28;20044;-88
2022/12/06 05:49:27;;;;;;;4.82;2.00;;;3.70;99.90;;;;;;5018434;28;20761;-87
2022/12/06 05:51:53;;;;;;;4.25;2.20;;;3.70;99.90;;;;;;5018163;28;20041;-87
2022/12/06 05:54:19;;;;;;;4.55;2.40;;;3.70;99.90;;;;;;5019510;28;20441;-88
2022/12/06 05:56:45;;;;;;;7.45;2.55;;;3.80;99.90;;;;;;5020322;28;20118;-87
2022/12/06 05:59:11;;;;;;;5.82;2.47;;;3.70;99.90;;;;;;5017707;28;20041;-86
2022/12/06 06:01:36;;;;;;;5.65;2.70;;;3.80;99.90;;;;;;5021429;28;20128;-86
2022/12/06 06:04:02;;;;;;;4.07;2.20;;;3.80;99.90;;;;;;5019351;28;20072;-86
2022/12/06 06:06:28;;;;;;;3.92;2.55;;;3.70;99.90;;;;;;5034382;28;20373;-87
2022/12/06 06:08:56;;;;;;;5.40;2.47;;;3.70;99.90;;;;;;5018004;28;20072;-87
2022/12/06 06:11:22;;;;;;;6.13;2.67;;;3.60;99.90;;;;;;5034788;28;20140;-86
2022/12/06 06:13:48;;;;;;;7.28;2.90;;;3.50;99.90;;;;;;5019082;28;20241;-88
2022/12/06 06:16:17;;;;;;;4.82;2.22;;;3.50;99.90;;;;;;5021772;28;20408;-88
2022/12/06 06:18:42;;;;;;;4.50;2.30;;;3.50;99.90;;;;;;5017355;28;20049;-87
2022/12/06 06:21:08;;;;;;;6.57;2.55;;;3.30;99.90;;;;;;5019035;28;20399;-87
2022/12/06 06:23:34;;;;;;;4.55;2.58;;;3.40;99.90;;;;;;5023141;28;20053;-88
2022/12/06 06:26:04;;;;;;;6.75;2.75;;;3.30;99.90;;;;;;5034808;28;20060;-87
2022/12/06 06:28:33;;;;;;;5.30;2.70;;;3.30;99.90;;;;;;5019596;28;20446;-88
2022/12/06 06:31:05;;;;;;;9.57;3.00;;;3.30;99.90;;;;;;5018044;28;20384;-86
2022/12/06 06:33:31;;;;;;;5.72;2.97;;;3.40;99.90;;;;;;5018827;28;20444;-88
2022/12/06 06:36:00;;;;;;;9.32;3.20;;;3.40;99.90;;;;;;5018223;28;20048;-86
2022/12/06 06:38:25;;;;;;;6.45;3.28;;;3.40;99.90;;;;;;5025309;28;20971;-87
2022/12/06 06:40:51;;;;;;;7.30;3.10;;;3.40;99.90;;;;;;5020053;28;20045;-86
2022/12/06 06:43:17;;;;;;;10.40;2.88;;;3.40;99.90;;;;;;5019700;28;20159;-87
2022/12/06 06:46:00;;;;;;;4.90;2.72;;;3.30;99.90;;;;;;5020604;28;20045;-87
2022/12/06 06:48:28;;;;;;;7.57;3.40;;;3.30;99.90;;;;;;5015705;28;20500;-88
2022/12/06 06:51:06;;;;;;;6.78;3.00;;;3.30;99.90;;;;;;5017218;28;20368;-88
2022/12/06 06:53:32;;;;;;;6.95;3.50;;;3.30;99.90;;;;;;5035571;28;20038;-87
2022/12/06 06:56:01;;;;;;;7.50;3.25;;;3.10;99.90;;;;;;5019090;28;20068;-88
2022/12/06 06:58:30;;;;;;;7.45;3.13;;;3.10;99.90;;;;;;5033226;28;20044;-88
2022/12/06 07:00:58;;;;;;;7.43;2.97;;;2.90;99.90;;;;;;5033886;28;20215;-88
2022/12/06 07:03:25;;;;;;;6.90;3.47;;;3.00;99.90;;;;;;5033739;28;20436;-88
2022/12/06 07:06:03;;;;;;;5.82;3.05;;;3.00;99.90;;;;;;5024053;28;20066;-87
2022/12/06 07:08:33;;;;;;;8.55;3.75;;;2.90;99.90;;;;;;5019663;28;20037;-87
2022/12/06 07:10:59;;;;;;;11.00;4.07;;;2.90;99.90;;;;;;5022288;28;20418;-87
2022/12/06 07:13:26;;;;;;;10.55;3.47;;;2.90;99.90;;;;;;5032828;28;20059;-87
2022/12/06 07:15:52;;;;;;;8.93;3.40;;;2.80;99.90;;;;;;5018479;28;20037;-86
2022/12/06 07:18:25;;;;;;;7.88;3.38;;;2.70;99.90;;;;;;5018587;28;20413;-87
2022/12/06 07:21:02;;;;;;;9.50;3.30;;;2.80;99.90;;;;;;5016221;28;20044;-87
2022/12/06 07:23:35;;;;;;;6.78;3.10;;;2.80;99.90;;;;;;5034274;28;20049;-87
2022/12/06 07:26:11;;;;;;;9.30;3.88;;;2.80;99.90;;;;;;5020575;28;20441;-87
2022/12/06 07:28:38;;;;;;;10.20;4.03;;;2.80;99.90;;;;;;5037779;28;20029;-87
2022/12/06 07:31:09;;;;;;;14.27;5.88;;;2.90;99.90;;;;;;5035280;28;20099;-87
2022/12/06 07:33:36;;;;;;;9.52;4.18;;;2.90;99.90;;;;;;5035987;28;20064;-86
2022/12/06 07:36:02;;;;;;;7.72;4.07;;;2.80;99.90;;;;;;5015907;28;20072;-87
2022/12/06 07:38:27;;;;;;;7.18;3.90;;;2.90;99.90;;;;;;5017872;28;20135;-88
2022/12/06 07:40:53;;;;;;;8.60;4.57;;;2.80;99.90;;;;;;5017914;28;20041;-87
2022/12/06 07:46:10;;;;;;;11.23;4.27;;;2.90;99.90;;;;;;5037120;28;20203;-88
2022/12/06 07:48:36;;;;;;;8.93;4.32;;;2.90;99.90;;;;;;5018287;28;20832;-87
2022/12/06 07:51:04;;;;;;;8.35;4.13;;;2.90;99.90;;;;;;5018979;28;20040;-88
2022/12/06 07:53:29;;;;;;;12.02;4.55;;;2.90;99.90;;;;;;5036002;28;20037;-88
2022/12/06 07:55:55;;;;;;;30.27;5.05;;;2.90;99.90;;;;;;5018242;28;20229;-87
2022/12/06 07:58:24;;;;;;;35.63;4.63;;;2.90;99.90;;;;;;5018384;28;20048;-88
2022/12/06 08:00:50;;;;;;;9.50;3.83;;;2.80;99.90;;;;;;5034563;28;20511;-87
2022/12/06 08:03:16;;;;;;;12.02;4.10;;;2.70;99.90;;;;;;5033430;28;20343;-87
2022/12/06 08:05:42;;;;;;;16.60;4.43;;;2.80;99.90;;;;;;5020459;28;20110;-88
2022/12/06 08:08:07;;;;;;;9.90;4.30;;;2.90;99.90;;;;;;5032950;28;20040;-87
2022/12/06 08:10:33;;;;;;;12.50;4.00;;;2.90;99.90;;;;;;5033757;28;20041;-87
2022/12/06 08:12:59;;;;;;;8.18;4.10;;;2.90;99.90;;;;;;5031682;28;20814;-87
2022/12/06 08:15:27;;;;;;;15.65;4.60;;;2.90;99.90;;;;;;5035176;28;20040;-88
2022/12/06 08:17:53;;;;;;;10.02;4.22;;;3.00;99.90;;;;;;5015877;28;20496;-87
2022/12/06 08:20:18;;;;;;;10.48;4.22;;;2.90;99.90;;;;;;5037821;28;20036;-88
2022/12/06 08:22:44;;;;;;;7.82;4.53;;;3.00;99.90;;;;;;5034220;28;20492;-87
2022/12/06 08:25:10;;;;;;;9.68;4.65;;;3.20;99.90;;;;;;5035720;28;20051;-87
2022/12/06 08:27:36;;;;;;;8.75;4.63;;;3.20;99.90;;;;;;5015777;28;20041;-87
2022/12/06 08:30:01;;;;;;;9.20;4.45;;;3.30;99.90;;;;;;5037575;28;20476;-87
2022/12/06 08:32:27;;;;;;;9.80;4.40;;;3.30;99.90;;;;;;5016837;28;20111;-87
2022/12/06 08:34:53;;;;;;;10.15;4.45;;;3.50;99.90;;;;;;5031897;28;20418;-87
2022/12/06 08:37:18;;;;;;;9.70;4.43;;;3.40;99.90;;;;;;5015479;28;20033;-88
2022/12/06 08:39:44;;;;;;;10.73;4.60;;;3.60;99.90;;;;;;5020105;28;20251;-87
2022/12/06 08:42:10;;;;;;;9.50;4.63;;;3.60;99.90;;;;;;5020089;28;20725;-86
2022/12/06 08:44:36;;;;;;;8.60;5.35;;;3.60;99.90;;;;;;5014909;28;20406;-88
2022/12/06 08:47:02;;;;;;;11.80;4.40;;;3.70;99.90;;;;;;4999659;28;20045;-86
2022/12/06 08:49:29;;;;;;;10.13;4.47;;;3.80;99.90;;;;;;5033525;28;20583;-87
2022/12/06 08:51:55;;;;;;;9.35;4.63;;;3.80;99.90;;;;;;5017227;28;20139;-88
2022/12/06 08:54:23;;;;;;;12.63;5.22;;;3.80;99.90;;;;;;5019875;28;20096;-88
2022/12/06 08:56:50;;;;;;;9.60;4.68;;;3.80;99.90;;;;;;5031957;28;20037;-86
2022/12/06 08:59:16;;;;;;;7.88;4.60;;;3.90;99.90;;;;;;5032002;28;20044;-87
2022/12/06 09:01:43;;;;;;;9.88;5.47;;;4.00;99.90;;;;;;5034200;28;20055;-88
2022/12/06 09:04:09;;;;;;;9.60;4.50;;;4.10;99.90;;;;;;5019443;28;20060;-88
2022/12/06 09:06:40;;;;;;;8.23;4.55;;;4.10;99.90;;;;;;5016780;28;20266;-87
2022/12/06 09:09:06;;;;;;;11.43;4.38;;;4.20;99.90;;;;;;5039719;28;20115;-88
2022/12/06 09:11:32;;;;;;;6.68;3.72;;;4.20;99.90;;;;;;5025849;28;20033;-87
2022/12/06 09:13:58;;;;;;;8.98;4.43;;;4.30;99.90;;;;;;5030190;28;20480;-88
2022/12/06 09:16:24;;;;;;;10.75;4.07;;;4.40;99.90;;;;;;5041679;28;20037;-87
2022/12/06 09:18:50;;;;;;;10.32;4.68;;;4.40;99.90;;;;;;5028317;28;20124;-87
2022/12/06 09:21:22;;;;;;;9.02;4.20;;;4.40;99.90;;;;;;5028382;28;20131;-88
2022/12/06 09:23:48;;;;;;;8.68;4.40;;;4.40;99.90;;;;;;5023234;28;20143;-88
2022/12/06 09:26:14;;;;;;;8.07;3.85;;;4.40;99.90;;;;;;5041224;28;20068;-88
2022/12/06 09:28:42;;;;;;;10.68;3.50;;;4.40;99.90;;;;;;5023033;28;20409;-88
2022/12/06 09:31:08;;;;;;;8.68;3.92;;;4.40;99.90;;;;;;5025793;28;20051;-88
2022/12/06 09:33:35;;;;;;;9.18;3.90;;;4.40;99.90;;;;;;5026624;28;20140;-88
2022/12/06 09:36:08;;;;;;;7.28;3.65;;;4.30;99.90;;;;;;5023398;28;20083;-87
2022/12/06 09:38:37;;;;;;;8.85;3.70;;;4.30;99.90;;;;;;5023849;28;20159;-87
2022/12/06 09:41:31;;;;;;;8.43;3.83;;;4.30;99.90;;;;;;5044792;28;20079;-88
2022/12/06 09:44:24;;;;;;;9.10;4.00;;;4.20;99.90;;;;;;5021424;28;20036;-87
2022/12/06 09:47:19;;;;;;;9.93;3.33;;;4.30;99.90;;;;;;5026651;28;20053;-88
2022/12/06 09:50:15;;;;;;;6.78;3.63;;;4.30;99.90;;;;;;5021518;28;20055;-88
2022/12/06 09:52:59;;;;;;;8.70;3.78;;;4.40;99.90;;;;;;5023921;28;20037;-88
2022/12/06 09:55:37;;;;;;;5.53;3.40;;;4.50;99.90;;;;;;5024946;28;20041;-87
2022/12/06 09:58:05;;;;;;;6.78;3.38;;;4.50;99.90;;;;;;5039228;28;20040;-87
2022/12/06 10:00:41;;;;;;;7.72;3.80;;;4.70;99.90;;;;;;5024899;28;20120;-87
2022/12/06 10:03:48;;;;;;;7.60;3.08;;;4.80;99.90;;;;;;5020942;28;20072;-88
2022/12/06 10:06:18;;;;;;;7.45;3.13;;;4.80;99.90;;;;;;5016228;28;20183;-87
2022/12/06 10:08:50;;;;;;;8.35;3.53;;;4.90;99.90;;;;;;5036757;28;20072;-88
2022/12/06 10:11:22;;;;;;;8.07;3.58;;;5.00;99.90;;;;;;5021563;28;20090;-87
2022/12/06 10:14:09;;;;;;;8.55;3.53;;;5.00;99.90;;;;;;5020555;28;20503;-87
2022/12/06 10:17:00;;;;;;;5.90;3.17;;;5.10;99.90;;;;;;5024063;28;20048;-88
2022/12/06 10:19:34;;;;;;;6.03;3.22;;;5.10;99.90;;;;;;5020415;28;20588;-88
2022/12/06 10:22:26;;;;;;;6.60;2.90;;;5.10;99.90;;;;;;5032507;28;20578;-86
2022/12/06 10:25:09;;;;;;;6.97;2.75;;;5.10;99.90;;;;;;5037471;28;20103;-87
2022/12/06 10:28:08;;;;;;;4.60;2.83;;;5.10;99.90;;;;;;5034049;28;20043;-88
2022/12/06 10:30:47;;;;;;;6.07;2.80;;;5.20;99.90;;;;;;5019370;28;20078;-87
2022/12/06 10:33:40;;;;;;;6.00;3.22;;;5.20;99.90;;;;;;5015744;28;20045;-88
2022/12/06 10:36:08;;;;;;;6.22;2.80;;;5.30;99.90;;;;;;5018970;28;20563;-87
2022/12/06 10:38:42;;;;;;;11.30;2.90;;;5.40;99.90;;;;;;5020336;28;20048;-87
2022/12/06 10:41:20;;;;;;;7.38;2.95;;;5.60;99.90;;;;;;5038388;28;20076;-87
2022/12/06 10:43:54;;;;;;;17.55;3.13;;;5.60;99.90;;;;;;5019296;28;20049;-87
2022/12/06 10:49:35;;;;;;;6.05;2.72;;;5.60;99.90;;;;;;5034531;28;20041;-89
2022/12/06 10:52:28;;;;;;;5.03;2.38;;;5.50;99.90;;;;;;5032263;28;20119;-88
2022/12/06 10:55:15;;;;;;;3.97;2.50;;;5.50;99.90;;;;;;5022093;28;20076;-88
2022/12/06 10:58:09;;;;;;;5.18;2.75;;;5.60;99.90;;;;;;5033762;28;20107;-87
2022/12/06 11:00:43;;;;;;;5.45;2.75;;;5.70;99.90;;;;;;5022820;28;20059;-86
2022/12/06 11:03:39;;;;;;;7.18;2.40;;;5.70;99.90;;;;;;5036437;28;20072;-87
2022/12/06 11:06:17;;;;;;;4.45;2.50;;;5.70;99.90;;;;;;5034866;28;20128;-86
2022/12/06 11:09:09;;;;;;;6.55;2.67;;;5.80;99.90;;;;;;5020600;28;20041;-86
2022/12/06 11:11:38;;;;;;;4.82;2.63;;;5.90;99.90;;;;;;5037360;28;20053;-86
2022/12/06 11:14:39;;;;;;;6.18;2.90;;;6.10;99.90;;;;;;5022596;28;20076;-87
2022/12/06 11:17:20;;;;;;;4.95;2.28;;;6.10;99.90;;;;;;5019129;28;20043;-87
2022/12/06 11:20:13;;;;;;;7.75;2.63;;;6.10;99.90;;;;;;5013523;28;20314;-86
2022/12/06 11:22:49;;;;;;;5.85;2.60;;;6.20;99.90;;;;;;5021952;28;20072;-87
2022/12/06 11:25:36;;;;;;;5.20;2.53;;;6.30;99.90;;;;;;5016988;28;20123;-86
2022/12/06 11:28:36;;;;;;;5.78;2.38;;;6.30;99.90;;;;;;5017385;28;20415;-87
2022/12/06 11:31:18;;;;;;;4.63;2.25;;;6.40;99.90;;;;;;5000590;28;20056;-87
2022/12/06 11:33:45;;;;;;;2.70;2.13;;;6.40;99.90;;;;;;5049159;28;20174;-87
2022/12/06 11:36:11;;;;;;;4.70;2.38;;;6.40;99.90;;;;;;5020517;28;20029;-87
2022/12/06 11:38:40;;;;;;;4.43;1.90;;;6.40;99.90;;;;;;5014943;28;20132;-87
2022/12/06 11:41:09;;;;;;;3.95;2.00;;;6.40;99.90;;;;;;5001347;28;20041;-87
2022/12/06 11:43:35;;;;;;;4.45;2.10;;;6.60;99.90;;;;;;5015553;28;20599;-87
2022/12/06 11:46:04;;;;;;;3.17;2.20;;;6.70;99.90;;;;;;5039997;28;20067;-87
2022/12/06 11:48:33;;;;;;;3.10;2.03;;;6.80;99.90;;;;;;5019369;28;20072;-87
2022/12/06 11:50:59;;;;;;;3.20;1.90;;;6.80;99.90;;;;;;5016688;28;20182;-86
2022/12/06 11:53:56;;;;;;;2.53;1.85;;;6.80;99.90;;;;;;5036222;28;20490;-86
2022/12/06 11:56:26;;;;;;;3.53;1.90;;;6.70;99.90;;;;;;5017040;28;20372;-86
2022/12/06 11:59:06;;;;;;;4.35;1.90;;;6.70;99.90;;;;;;5021427;28;20210;-86
2022/12/06 12:01:39;;;;;;;3.10;1.75;;;6.70;99.90;;;;;;5033197;28;20041;-85
2022/12/06 12:04:40;;;;;;;4.53;2.35;;;6.60;99.90;;;;;;5021967;28;20456;-87
2022/12/06 12:07:16;;;;;;;4.50;2.20;;;6.60;99.90;;;;;;5027352;28;20649;-87
2022/12/06 12:10:02;;;;;;;4.13;1.90;;;6.50;99.90;;;;;;5040973;28;20056;-87
2022/12/06 12:15:52;;;;;;;4.78;2.42;;;6.60;99.90;;;;;;5031027;28;20051;-88
2022/12/06 12:18:43;;;;;;;3.28;1.98;;;6.60;99.90;;;;;;5037724;28;20073;-86
2022/12/06 12:21:15;;;;;;;3.05;2.10;;;6.60;99.90;;;;;;5032319;28;20087;-86
2022/12/06 12:23:44;;;;;;;6.03;2.20;;;6.60;99.90;;;;;;5033836;28;20072;-86
2022/12/06 12:26:14;;;;;;;4.70;2.38;;;6.50;99.90;;;;;;5032397;28;20242;-86
2022/12/06 12:28:42;;;;;;;3.85;1.95;;;6.70;99.90;;;;;;5032989;28;20140;-86
2022/12/06 12:31:28;;;;;;;3.95;2.00;;;6.80;99.90;;;;;;5031724;28;20128;-86
2022/12/06 12:34:17;;;;;;;4.00;2.05;;;6.90;99.90;;;;;;5016075;28;20118;-86
2022/12/06 12:36:49;;;;;;;4.90;2.22;;;7.00;99.90;;;;;;5016125;28;20404;-87
2022/12/06 12:39:38;;;;;;;4.40;2.00;;;7.10;99.90;;;;;;5033037;28;20159;-88
2022/12/06 12:42:28;;;;;;;6.57;2.13;;;7.00;99.90;;;;;;5019453;28;20037;-87
2022/12/06 12:44:58;;;;;;;2.88;2.05;;;7.10;99.90;;;;;;5033429;28;20081;-87
2022/12/06 12:47:24;;;;;;;2.70;1.98;;;7.10;99.90;;;;;;5031475;28;20029;-88
2022/12/06 12:50:22;;;;;;;2.88;1.98;;;7.00;99.90;;;;;;5035523;28;20407;-87
2022/12/06 12:52:49;;;;;;;2.33;1.95;;;6.90;99.90;;;;;;5008954;28;20049;-86
2022/12/06 12:55:24;;;;;;;5.78;2.30;;;6.90;99.90;;;;;;5013462;28;20045;-86
2022/12/06 12:57:54;;;;;;;;;;;6.90;99.90;;;;;;5014117;28;20044;-87
2022/12/06 13:00:24;;;;;;;3.50;2.10;;;6.80;99.90;;;;;;5019305;28;19923;-87
2022/12/06 13:03:11;;;;;;;2.85;2.00;;;6.90;99.90;;;;;;5032493;28;20329;-86
2022/12/06 13:05:39;;;;;;;3.22;2.20;;;6.80;99.90;;;;;;5032654;28;20471;-86
2022/12/06 13:08:14;;;;;;;4.90;2.28;;;6.90;99.90;;;;;;5032596;28;20091;-86
2022/12/06 13:10:45;;;;;;;4.57;2.00;;;6.80;99.90;;;;;;5034768;28;20423;-87
2022/12/06 13:13:18;;;;;;;4.18;1.80;;;6.80;99.90;;;;;;5032927;28;20090;-87
2022/12/06 13:15:47;;;;;;;6.60;1.80;;;6.90;99.90;;;;;;5019580;28;20518;-87
2022/12/06 13:18:28;;;;;;;2.78;1.90;;;6.90;99.90;;;;;;5016813;28;20147;-87
2022/12/06 13:20:59;;;;;;;3.50;1.80;;;7.00;99.90;;;;;;5032661;28;20369;-86
2022/12/06 13:23:32;;;;;;;2.85;1.83;;;7.00;99.90;;;;;;5032839;28;20057;-86
2022/12/06 13:26:23;;;;;;;2.88;1.92;;;7.30;99.90;;;;;;5016529;28;20786;-87
2022/12/06 13:28:54;;;;;;;2.30;1.63;;;7.40;99.90;;;;;;5017355;28;20044;-86
2022/12/06 13:31:29;;;;;;;2.30;1.80;;;7.50;99.90;;;;;;5017826;28;20037;-86
2022/12/06 13:34:24;;;;;;;4.03;1.55;;;7.20;99.90;;;;;;5023115;28;20095;-88
2022/12/06 13:36:51;;;;;;;3.67;2.42;;;7.10;99.90;;;;;;4979481;28;20570;-88
2022/12/06 13:39:32;;;;;;;3.63;1.60;;;7.00;99.90;;;;;;5022959;28;20601;-87
2022/12/06 13:42:18;;;;;;;3.53;1.80;;;7.00;99.90;;;;;;5015602;28;20171;-86
2022/12/06 13:44:47;;;;;;;4.10;1.88;;;6.90;99.90;;;;;;5033588;28;20424;-87
2022/12/06 13:47:28;;;;;;;4.78;1.88;;;6.90;99.90;;;;;;5031858;28;20049;-85
2022/12/06 13:49:56;;;;;;;3.25;1.67;;;6.90;99.90;;;;;;5035282;28;20072;-88
2022/12/06 13:52:40;;;;;;;4.68;1.90;;;6.80;99.90;;;;;;5035869;28;20999;-86